Time;durP1;ratioP1;P1;durP2;ratioP2;P2;SDS_P1;SDS_P2;PMS_P1;PMS_P2;Temp;Humidity;BMP_temperature;BMP_pressure;BME280_temperature;BME280_humidity;BME280_pressure;Samples;Min_cycle;Max_cycle;Signal;HPM_P1;HPM_P2
2022/04/09 00:04:33;;;;;;;12.60;3.85;;;;;;;2.57;100.00;100315.22;6337634;22;20021;-77
2022/04/09 00:10:20;;;;;;;14.43;3.70;;;;;;;2.59;100.00;100334.34;6337529;22;20061;-78
2022/04/09 00:12:47;;;;;;;27.83;5.07;;;;;;;2.70;100.00;100346.31;6303234;22;20366;-77
2022/04/09 00:18:34;;;;;;;23.75;4.38;;;;;;;2.68;100.00;100354.41;6330393;22;20452;-76
2022/04/09 00:20:59;;;;;;;23.02;4.22;;;;;;;2.68;100.00;100359.69;6309411;22;20003;-77
2022/04/09 00:23:24;;;;;;;17.55;4.20;;;;;;;2.62;100.00;100364.84;6309259;22;20046;-78
2022/04/09 00:25:50;;;;;;;13.35;4.00;;;;;;;2.61;100.00;100374.59;6302975;22;20011;-76
2022/04/09 00:28:15;;;;;;;14.70;3.17;;;;;;;2.59;100.00;100381.84;6337163;22;20033;-77
2022/04/09 00:34:04;;;;;;;18.13;4.90;;;;;;;2.53;100.00;100374.63;6337438;22;20018;-77
2022/04/09 00:39:51;;;;;;;19.80;4.30;;;;;;;2.53;100.00;100387.81;6337265;22;20032;-77
2022/04/09 00:42:18;;;;;;;24.27;4.47;;;;;;;2.48;100.00;100380.41;6337407;22;20447;-76
2022/04/09 00:44:44;;;;;;;30.08;4.95;;;;;;;2.42;100.00;100382.94;6303121;22;20014;-76
2022/04/09 00:50:31;;;;;;;26.02;5.82;;;;;;;2.48;100.00;100414.72;6336960;22;20064;-78
2022/04/09 00:56:21;;;;;;;18.80;4.15;;;;;;;2.41;100.00;100407.66;6337157;22;20063;-78
2022/04/09 01:02:08;;;;;;;22.15;4.18;;;;;;;2.45;100.00;100427.44;6337075;22;20484;-78
2022/04/09 01:07:55;;;;;;;23.85;3.88;;;;;;;2.36;100.00;100428.47;6332948;22;20021;-77
2022/04/09 01:10:21;;;;;;;24.48;4.47;;;;;;;2.37;100.00;100435.41;6305952;22;20093;-78
2022/04/09 01:12:46;;;;;;;22.55;5.88;;;;;;;2.43;100.00;100442.63;6336851;22;20442;-78
2022/04/09 01:15:11;;;;;;;19.02;3.95;;;;;;;2.36;100.00;100439.03;6330010;22;20014;-77
2022/04/09 01:17:37;;;;;;;22.25;4.97;;;;;;;2.40;100.00;100456.16;6309237;22;20026;-78
2022/04/09 01:20:19;;;;;;;24.63;4.30;;;;;;;2.39;100.00;100457.97;6336873;22;20007;-78
2022/04/09 01:22:44;;;;;;;31.42;6.18;;;;;;;2.39;100.00;100454.50;6329887;22;20345;-77
2022/04/09 01:25:09;;;;;;;14.95;4.15;;;;;;;2.44;100.00;100462.72;6309043;22;20006;-77
2022/04/09 01:27:35;;;;;;;23.30;5.28;;;;;;;2.37;100.00;100462.59;6302402;22;20011;-77
2022/04/09 01:30:01;;;;;;;28.38;4.75;;;;;;;2.34;100.00;100468.22;6336488;22;20049;-77
2022/04/09 01:32:26;;;;;;;18.08;4.30;;;;;;;2.32;100.00;100469.38;6336671;22;20693;-77
2022/04/09 01:34:52;;;;;;;20.33;4.40;;;;;;;2.27;100.00;100469.84;6329761;22;20059;-77
2022/04/09 01:37:18;;;;;;;30.30;5.57;;;;;;;2.31;100.00;100478.25;6336617;22;20010;-77
2022/04/09 01:39:43;;;;;;;18.65;3.90;;;;;;;2.28;100.00;100481.22;6308207;22;20049;-77
2022/04/09 01:42:10;;;;;;;25.40;4.68;;;;;;;2.34;100.00;100491.97;6330744;22;20082;-77
2022/04/09 01:48:00;;;;;;;31.33;5.03;;;;;;;2.37;100.00;100498.72;6336538;22;20110;-78
2022/04/09 01:50:29;;;;;;;16.92;4.25;;;;;;;2.41;100.00;100506.13;6336437;22;20030;-77
2022/04/09 01:52:56;;;;;;;14.43;3.72;;;;;;;2.39;100.00;100504.63;6329297;22;20010;-77
2022/04/09 01:55:21;;;;;;;26.20;5.97;;;;;;;2.38;100.00;100518.81;6308486;22;20007;-77
2022/04/09 02:01:08;;;;;;;18.80;4.43;;;;;;;2.57;100.00;100518.41;6336279;22;20086;-77
2022/04/09 02:03:34;;;;;;;15.57;3.25;;;;;;;2.58;100.00;100530.63;6334765;22;20030;-77
2022/04/09 02:05:59;;;;;;;20.80;4.50;;;;;;;2.51;100.00;100531.47;6329495;22;20015;-77
2022/04/09 02:08:25;;;;;;;18.13;3.45;;;;;;;2.47;100.00;100521.25;6308563;22;20011;-77
2022/04/09 02:10:50;;;;;;;30.80;4.57;;;;;;;2.52;100.00;100541.03;6336150;22;20097;-77
2022/04/09 02:13:19;;;;;;;17.77;3.20;;;;;;;2.55;100.00;100540.69;6302130;22;20003;-78
2022/04/09 02:19:06;;;;;;;18.52;3.65;;;;;;;2.47;100.00;100547.66;6336802;22;20094;-78
2022/04/09 02:24:53;;;;;;;19.83;4.35;;;;;;;2.39;100.00;100567.97;6337751;22;20052;-77
2022/04/09 02:34:56;;;;;;;20.42;4.00;;;;;;;2.14;100.00;100578.53;6337854;22;20449;-77
2022/04/09 02:37:22;;;;;;;17.52;2.83;;;;;;;2.17;100.00;100583.47;6330865;22;20013;-78
2022/04/09 02:39:47;;;;;;;21.50;3.90;;;;;;;2.15;100.00;100592.53;6337801;22;20006;-78
2022/04/09 02:42:13;;;;;;;31.83;4.60;;;;;;;2.23;100.00;100599.63;6334250;22;20426;-79
2022/04/09 02:44:39;;;;;;;20.60;4.50;;;;;;;2.40;100.00;100595.97;6334669;22;20083;-77
2022/04/09 02:50:26;;;;;;;14.10;3.95;;;;;;;2.49;100.00;100592.31;6337902;22;20075;-78
2022/04/09 02:56:13;;;;;;;18.20;4.40;;;;;;;2.54;100.00;100605.00;6338181;22;20021;-78
2022/04/09 02:58:38;;;;;;;22.23;3.35;;;;;;;2.49;100.00;100598.44;6338042;22;20074;-78
2022/04/09 03:04:25;;;;;;;21.08;3.40;;;;;;;2.38;100.00;100616.44;6337909;22;20025;-78
2022/04/09 03:06:50;;;;;;;23.88;4.53;;;;;;;2.33;100.00;100610.84;6303659;22;20007;-78
2022/04/09 03:12:45;;;;;;;12.45;3.03;;;;;;;2.28;100.00;100627.13;6337794;22;20013;-77
2022/04/09 03:15:12;;;;;;;15.40;3.35;;;;;;;2.28;100.00;100631.59;6310191;22;20003;-79
2022/04/09 03:20:59;;;;;;;16.30;4.88;;;;;;;2.16;100.00;100646.94;6338083;22;20029;-78
2022/04/09 03:23:24;;;;;;;12.13;3.13;;;;;;;2.13;100.00;100640.16;6310088;22;20408;-78
2022/04/09 03:25:50;;;;;;;15.38;4.07;;;;;;;2.11;100.00;100644.78;6303381;22;20067;-78
2022/04/09 03:28:15;;;;;;;19.20;4.43;;;;;;;2.08;100.00;100646.94;6310070;22;20445;-78
2022/04/09 03:30:42;;;;;;;12.73;3.17;;;;;;;2.09;100.00;100653.84;6332452;22;20443;-78
2022/04/09 03:36:30;;;;;;;11.43;4.18;;;;;;;1.94;100.00;100655.47;6335183;22;20033;-78
2022/04/09 03:38:55;;;;;;;23.73;3.70;;;;;;;1.90;100.00;100664.69;6333232;22;20396;-78
2022/04/09 03:41:21;;;;;;;16.42;4.45;;;;;;;1.80;100.00;100660.41;6309682;22;20015;-77
2022/04/09 03:43:48;;;;;;;14.30;3.47;;;;;;;1.71;100.00;100663.16;6330727;22;20030;-77
2022/04/09 03:46:13;;;;;;;21.88;4.30;;;;;;;1.65;100.00;100656.72;6337281;22;20077;-77
2022/04/09 03:52:00;;;;;;;13.45;3.90;;;;;;;1.63;100.00;100665.78;6337606;22;20076;-77
2022/04/09 03:57:47;;;;;;;22.23;5.03;;;;;;;1.55;100.00;100674.50;6337500;22;20154;-77
2022/04/09 04:00:16;;;;;;;20.75;3.85;;;;;;;1.48;100.00;100673.50;6337501;22;20010;-78
2022/04/09 04:02:42;;;;;;;19.27;3.42;;;;;;;1.49;100.00;100686.50;6330338;22;20010;-78
2022/04/09 04:05:08;;;;;;;22.48;4.07;;;;;;;1.52;100.00;100688.00;6335606;22;20091;-77
2022/04/09 04:07:33;;;;;;;19.45;3.60;;;;;;;1.57;100.00;100706.78;6303045;22;20037;-77
2022/04/09 04:10:04;;;;;;;16.80;4.32;;;;;;;1.51;100.00;100684.53;6337323;22;20081;-77
2022/04/09 04:12:29;;;;;;;16.67;3.65;;;;;;;1.57;100.00;100698.03;6335427;22;20165;-78
2022/04/09 04:18:16;;;;;;;22.42;4.10;;;;;;;1.56;100.00;100710.41;6337391;22;20025;-77
2022/04/09 04:20:41;;;;;;;15.52;4.05;;;;;;;1.61;100.00;100715.19;6303138;22;20007;-77
2022/04/09 04:26:28;;;;;;;14.95;3.85;;;;;;;1.57;100.00;100721.75;6337339;22;20021;-76
2022/04/09 04:28:53;;;;;;;17.58;3.80;;;;;;;1.55;100.00;100722.75;6309459;22;20006;-77
2022/04/09 04:31:19;;;;;;;12.63;3.75;;;;;;;1.61;100.00;100725.72;6330253;22;20014;-77
2022/04/09 04:33:44;;;;;;;15.45;3.60;;;;;;;1.57;100.00;100721.75;6336856;22;20027;-77
2022/04/09 04:36:09;;;;;;;14.98;3.97;;;;;;;1.53;100.00;100713.34;6309423;22;20392;-77
2022/04/09 04:38:35;;;;;;;18.92;3.83;;;;;;;1.66;100.00;100731.34;6330429;22;20372;-77
2022/04/09 04:41:02;;;;;;;23.38;4.55;;;;;;;1.60;100.00;100724.91;6309368;22;20351;-77
2022/04/09 04:43:27;;;;;;;21.08;3.70;;;;;;;1.57;100.00;100738.38;6301955;22;20011;-77
2022/04/09 04:45:52;;;;;;;15.95;4.15;;;;;;;1.64;100.00;100738.56;6337172;22;20003;-76
2022/04/09 04:48:20;;;;;;;18.90;4.40;;;;;;;1.67;100.00;100747.00;6336193;22;20030;-77
2022/04/09 04:50:46;;;;;;;19.27;4.78;;;;;;;1.67;100.00;100746.16;6304194;22;20013;-77
2022/04/09 04:53:11;;;;;;;11.98;3.67;;;;;;;1.72;100.00;100743.88;6337055;22;20010;-77
2022/04/09 04:55:36;;;;;;;16.08;3.95;;;;;;;1.68;100.00;100755.72;6330065;22;20064;-77
2022/04/09 04:58:02;;;;;;;32.67;4.35;;;;;;;1.73;100.00;100753.44;6335367;22;20056;-77
2022/04/09 05:03:50;;;;;;;24.33;4.07;;;;;;;1.75;100.00;100765.50;6337239;22;20370;-77
2022/04/09 05:09:36;;;;;;;17.02;3.75;;;;;;;1.85;100.00;100783.81;6337233;22;20144;-77
2022/04/09 05:15:24;;;;;;;30.05;5.18;;;;;;;1.93;100.00;100785.63;6337275;22;20064;-79
2022/04/09 05:21:12;;;;;;;25.45;3.70;;;;;;;2.22;100.00;100801.88;6337032;22;20025;-77
2022/04/09 05:26:58;;;;;;;20.40;5.63;;;;;;;2.63;100.00;100812.53;6337086;22;20063;-76
2022/04/09 05:32:46;;;;;;;22.63;5.18;;;;;;;3.09;100.00;100832.19;6336662;22;20325;-76
2022/04/09 05:38:34;;;;;;;19.00;4.50;;;;;;;3.00;100.00;100828.72;6336644;22;20037;-76
2022/04/09 05:44:21;;;;;;;26.10;4.70;;;;;;;3.64;100.00;100834.09;6336721;22;20455;-76
2022/04/09 05:46:46;;;;;;;21.63;4.10;;;;;;;3.94;100.00;100843.09;6336515;22;20003;-76
2022/04/09 05:52:33;;;;;;;25.27;4.30;;;;;;;4.71;100.00;100857.28;6336555;22;20382;-77
2022/04/09 06:01:56;;;;;;;19.85;3.63;;;;;;;5.78;96.75;100858.88;6337834;22;20099;-78
2022/04/09 06:04:22;;;;;;;19.88;4.32;;;;;;;6.19;91.86;100872.53;6337845;22;20015;-77
2022/04/09 06:06:48;;;;;;;19.15;4.07;;;;;;;6.49;91.23;100880.44;6330874;22;20132;-79
2022/04/09 06:09:13;;;;;;;28.48;6.05;;;;;;;6.68;88.32;100871.88;6337927;22;20807;-78
2022/04/09 06:11:39;;;;;;;23.25;4.82;;;;;;;7.01;87.15;100896.16;6330825;22;20074;-78
2022/04/09 06:14:05;;;;;;;24.08;4.25;;;;;;;7.42;85.85;100904.28;6337749;22;19999;-78
2022/04/09 06:16:30;;;;;;;22.95;4.13;;;;;;;7.62;83.80;100885.84;6337801;22;20010;-79
2022/04/09 06:18:56;;;;;;;22.52;4.18;;;;;;;7.82;81.91;100903.78;6303660;22;20009;-79
2022/04/09 06:21:21;;;;;;;27.33;4.35;;;;;;;8.06;80.35;100905.97;6337591;22;20056;-78
2022/04/09 06:23:46;;;;;;;25.42;5.07;;;;;;;7.98;79.59;100909.63;6330806;22;20423;-79
2022/04/09 06:26:11;;;;;;;19.67;4.30;;;;;;;8.33;79.30;100917.59;6310051;22;20006;-78
2022/04/09 06:28:37;;;;;;;23.98;4.78;;;;;;;8.70;76.98;100924.38;6331416;22;20116;-80
2022/04/09 06:31:02;;;;;;;30.17;4.65;;;;;;;8.20;78.11;100936.19;6336856;22;20011;-79
2022/04/09 06:33:27;;;;;;;21.95;4.07;;;;;;;7.46;81.32;100928.66;6337401;22;20496;-77
2022/04/09 06:35:52;;;;;;;27.38;4.70;;;;;;;6.93;82.86;100932.63;6330732;22;20022;-78
2022/04/09 06:38:18;;;;;;;21.42;4.32;;;;;;;6.39;85.73;100930.38;6337522;22;20003;-78
2022/04/09 06:40:43;;;;;;;27.77;4.57;;;;;;;6.27;86.58;100919.38;6330484;22;20011;-78
2022/04/09 06:43:08;;;;;;;18.70;4.17;;;;;;;6.09;89.75;100935.69;6337535;22;20002;-79
2022/04/09 06:45:34;;;;;;;23.85;4.55;;;;;;;6.39;88.28;100931.19;6336989;22;20251;-78
2022/04/09 06:47:59;;;;;;;23.52;5.93;;;;;;;7.34;87.51;100946.16;6303627;22;20335;-78
2022/04/09 06:50:25;;;;;;;17.17;3.85;;;;;;;8.50;80.91;100939.44;6337357;22;20030;-79
2022/04/09 06:52:50;;;;;;;20.08;5.28;;;;;;;8.91;76.92;100942.06;6329196;22;20011;-78
2022/04/09 06:55:15;;;;;;;23.13;3.95;;;;;;;8.37;77.56;100949.00;6337689;22;19999;-79
2022/04/09 06:57:41;;;;;;;25.58;4.30;;;;;;;7.63;80.36;100939.88;6330550;22;20022;-78
2022/04/09 07:00:13;;;;;;;23.60;4.55;;;;;;;7.26;82.93;100949.78;6337568;22;20010;-78
2022/04/09 07:02:39;;;;;;;13.63;3.95;;;;;;;6.82;85.88;100960.53;6337543;22;20007;-78
2022/04/09 07:05:05;;;;;;;16.40;3.75;;;;;;;6.62;88.28;100978.06;6303095;22;20435;-78
2022/04/09 07:07:30;;;;;;;11.95;3.33;;;;;;;6.45;89.47;100994.19;6336953;22;20009;-79
2022/04/09 07:10:09;;;;;;;26.50;8.35;;;;;;;5.92;92.38;100995.25;6330384;22;20011;-78
2022/04/09 07:12:34;;;;;;;21.73;7.25;;;;;;;5.63;92.46;100988.00;6337510;22;20006;-79
2022/04/09 07:14:59;;;;;;;47.35;42.17;;;;;;;5.44;97.53;100994.59;6330447;22;20011;-79
2022/04/09 07:17:26;;;;;;;75.78;52.05;;;;;;;5.52;98.04;100999.84;6309660;22;20007;-78
2022/04/09 07:19:52;;;;;;;32.05;10.82;;;;;;;5.95;100.00;101004.66;6337192;22;20007;-79
2022/04/09 07:22:17;;;;;;;15.27;5.32;;;;;;;6.82;93.32;101001.22;6330518;22;20068;-78
2022/04/09 07:24:42;;;;;;;12.93;6.10;;;;;;;7.14;92.93;100997.31;6309690;22;20075;-78
2022/04/09 07:27:09;;;;;;;12.10;5.65;;;;;;;8.77;86.41;101005.19;6330557;22;20106;-79
2022/04/09 07:29:34;;;;;;;73.38;49.65;;;;;;;11.01;77.63;100999.09;6337225;22;20360;-79
2022/04/09 07:31:59;;;;;;;32.38;22.70;;;;;;;12.91;69.26;101018.34;6332882;22;20057;-78
2022/04/09 07:34:24;;;;;;;13.57;4.67;;;;;;;14.15;63.96;101011.41;6307183;22;20086;-79
2022/04/09 07:36:50;;;;;;;12.73;3.97;;;;;;;14.57;58.94;101004.88;6309713;22;20237;-79
2022/04/09 07:39:15;;;;;;;25.85;4.00;;;;;;;15.24;56.73;101025.06;6330451;22;20664;-77
2022/04/09 07:41:41;;;;;;;18.17;3.97;;;;;;;15.51;55.20;101018.03;6337219;22;20447;-77
2022/04/09 07:44:06;;;;;;;27.48;5.63;;;;;;;15.81;53.04;101009.69;6330319;22;20076;-76
2022/04/09 07:46:31;;;;;;;33.88;9.23;;;;;;;16.14;51.60;101027.75;6336998;22;20007;-77
2022/04/09 07:48:56;;;;;;;17.83;4.57;;;;;;;16.50;48.78;101017.50;6337169;22;20002;-76
2022/04/09 07:54:43;;;;;;;23.58;4.43;;;;;;;16.63;48.22;101027.91;6337474;22;20017;-77
2022/04/09 07:57:09;;;;;;;22.17;6.17;;;;;;;16.41;48.25;101017.06;6302948;22;20339;-78
2022/04/09 07:59:34;;;;;;;22.47;5.10;;;;;;;16.45;47.96;101033.59;6309599;22;20339;-77
2022/04/09 08:01:59;;;;;;;24.83;5.40;;;;;;;16.73;47.41;101033.47;6330322;22;20301;-77
2022/04/09 08:04:24;;;;;;;25.20;7.03;;;;;;;17.11;45.55;101031.81;6309528;22;20688;-77
2022/04/09 08:06:50;;;;;;;31.83;9.00;;;;;;;16.97;45.97;101031.34;6337199;22;20003;-77
2022/04/09 08:09:15;;;;;;;29.52;9.00;;;;;;;17.03;45.02;101028.47;6330236;22;20764;-76
2022/04/09 08:11:40;;;;;;;13.20;4.35;;;;;;;16.38;45.51;101018.41;6337146;22;20336;-77
2022/04/09 08:14:06;;;;;;;23.92;4.95;;;;;;;15.49;47.87;101020.16;6330202;22;20038;-76
2022/04/09 08:16:31;;;;;;;31.77;9.25;;;;;;;15.36;47.89;101023.97;6336881;22;20003;-76
2022/04/09 08:18:57;;;;;;;26.60;8.00;;;;;;;14.62;48.18;101028.38;6334669;22;20033;-77
2022/04/09 08:21:22;;;;;;;18.70;5.20;;;;;;;13.82;51.38;101031.59;6332813;22;20003;-76
2022/04/09 08:23:48;;;;;;;20.37;4.50;;;;;;;13.30;52.79;101036.69;6336965;22;20002;-77
2022/04/09 08:26:14;;;;;;;18.40;4.43;;;;;;;13.31;50.48;101022.22;6302735;22;20284;-75
2022/04/09 08:28:39;;;;;;;22.50;4.30;;;;;;;12.93;49.06;101021.63;6337020;22;20030;-77
2022/04/09 08:34:29;;;;;;;9.35;3.72;;;;;;;11.30;55.50;101039.72;6336951;22;20013;-76
2022/04/09 08:36:55;;;;;;;8.88;3.25;;;;;;;11.38;55.02;101040.28;6302835;22;20387;-76
2022/04/09 08:39:21;;;;;;;20.85;3.80;;;;;;;11.21;54.04;101046.31;6337135;22;20018;-76
2022/04/09 08:41:46;;;;;;;6.38;2.65;;;;;;;12.03;52.46;101048.13;6336974;22;20335;-76
2022/04/09 08:44:12;;;;;;;13.23;3.83;;;;;;;13.88;46.54;101044.13;6330084;22;20072;-76
2022/04/09 08:46:40;;;;;;;7.93;2.88;;;;;;;13.69;46.84;101055.16;6337002;22;20093;-76
2022/04/09 08:49:06;;;;;;;23.55;4.03;;;;;;;13.09;47.57;101073.91;6302640;22;20307;-76
2022/04/09 08:51:33;;;;;;;13.27;3.00;;;;;;;12.43;46.17;101070.03;6309349;22;20010;-75
2022/04/09 08:54:02;;;;;;;10.90;2.70;;;;;;;11.74;50.71;101074.47;6333898;22;20003;-75
2022/04/09 08:56:33;;;;;;;7.05;2.20;;;;;;;10.83;53.29;101071.16;6334627;22;20470;-75
2022/04/09 08:58:59;;;;;;;4.13;1.60;;;;;;;9.85;57.89;101087.03;6336832;22;20014;-76
2022/04/09 09:01:25;;;;;;;7.07;2.45;;;;;;;8.83;62.49;101094.22;6302614;22;20007;-74
2022/04/09 09:03:51;;;;;;;16.08;2.70;;;;;;;8.44;65.47;101100.13;6337039;22;20420;-75
2022/04/09 09:09:37;;;;;;;6.22;2.28;;;;;;;8.38;66.92;101107.03;6337072;22;20021;-75
2022/04/09 09:12:06;;;;;;;7.85;2.22;;;;;;;8.78;66.86;101104.66;6302717;22;20019;-76
2022/04/09 09:14:34;;;;;;;8.75;2.63;;;;;;;10.33;61.65;101105.56;6336784;22;20010;-75
2022/04/09 09:17:01;;;;;;;4.38;1.80;;;;;;;11.56;59.62;101133.28;6336814;22;20007;-75
2022/04/09 09:19:47;;;;;;;9.68;2.22;;;;;;;11.41;57.24;101128.19;6324249;22;20011;-76
2022/04/09 09:22:13;;;;;;;7.68;2.80;;;;;;;10.03;63.01;101144.38;6309107;22;20013;-75
2022/04/09 09:24:39;;;;;;;29.27;9.68;;;;;;;8.93;65.08;101122.19;6330020;22;20063;-75
2022/04/09 09:27:05;;;;;;;72.20;23.30;;;;;;;8.13;68.05;101149.22;6309295;22;20014;-77
2022/04/09 09:29:31;;;;;;;10.60;3.88;;;;;;;7.46;73.25;101166.28;6330566;22;20041;-79
2022/04/09 09:31:58;;;;;;;13.70;8.75;;;;;;;6.73;80.64;101132.56;6310301;22;20495;-78
2022/04/09 09:34:24;;;;;;;20.33;10.07;;;;;;;6.52;84.16;101125.28;6336606;22;20116;-78
2022/04/09 09:36:50;;;;;;;8.63;5.82;;;;;;;6.64;81.02;101123.00;6332585;22;20010;-78
2022/04/09 09:39:17;;;;;;;29.77;22.42;;;;;;;6.71;76.99;101118.63;6310291;22;20007;-78
2022/04/09 09:41:52;;;;;;;5.75;3.47;;;;;;;7.09;76.90;101124.69;6303631;22;20408;-78
2022/04/09 09:44:19;;;;;;;4.72;3.63;;;;;;;7.48;74.66;101131.50;6337845;22;20002;-78
2022/04/09 09:46:47;;;;;;;9.82;7.05;;;;;;;7.88;72.13;101129.31;6303286;22;20017;-78
2022/04/09 09:49:13;;;;;;;9.38;4.32;;;;;;;8.96;72.60;101127.16;6309932;22;20423;-79
2022/04/09 09:51:39;;;;;;;5.03;2.55;;;;;;;10.26;66.34;101125.31;6337634;22;20026;-78
2022/04/09 09:54:07;;;;;;;5.63;2.28;;;;;;;11.57;63.79;101128.78;6330715;22;20411;-78
2022/04/09 09:56:39;;;;;;;9.15;3.05;;;;;;;13.71;56.95;101134.50;6310148;22;20010;-79
2022/04/09 09:59:06;;;;;;;7.33;2.40;;;;;;;16.17;52.56;101118.97;6329653;22;20007;-78
2022/04/09 10:01:36;;;;;;;4.55;2.40;;;;;;;17.74;47.96;101131.22;6337808;22;20412;-78
2022/04/09 10:04:03;;;;;;;8.05;2.50;;;;;;;17.04;45.78;101124.66;6330945;22;20042;-78
2022/04/09 10:06:29;;;;;;;9.63;2.92;;;;;;;16.54;44.43;101121.22;6337742;22;20006;-78
2022/04/09 10:12:21;;;;;;;17.05;7.78;;;;;;;13.85;52.87;101122.50;6337887;22;20037;-78
2022/04/09 10:14:54;;;;;;;14.68;7.97;;;;;;;13.52;54.01;101120.28;6337960;22;20068;-78
2022/04/09 10:17:21;;;;;;;13.65;4.97;;;;;;;13.52;47.40;101124.81;6304081;22;20014;-78
2022/04/09 10:20:04;;;;;;;24.05;11.02;;;;;;;13.38;48.92;101134.94;6338312;22;20007;-78
2022/04/09 10:22:37;;;;;;;15.20;5.10;;;;;;;13.36;49.05;101125.47;6330909;22;20010;-77
2022/04/09 10:28:34;;;;;;;13.35;5.80;;;;;;;14.74;44.63;101134.16;6338181;22;20017;-78
2022/04/09 10:31:00;;;;;;;10.60;5.13;;;;;;;15.40;41.71;101132.09;6338433;22;20010;-77
2022/04/09 10:33:30;;;;;;;8.13;4.40;;;;;;;14.91;43.11;101120.81;6331148;22;20346;-76
2022/04/09 10:36:01;;;;;;;7.22;2.35;;;;;;;14.87;40.71;101131.25;6338149;22;19999;-77
2022/04/09 10:38:27;;;;;;;6.40;2.28;;;;;;;14.81;37.62;101134.06;6331178;22;20018;-77
2022/04/09 10:40:55;;;;;;;5.15;2.03;;;;;;;14.70;38.06;101134.84;6338039;22;20017;-76
2022/04/09 10:43:26;;;;;;;3.50;2.28;;;;;;;14.19;37.02;101130.94;6337721;22;20009;-77
2022/04/09 10:46:00;;;;;;;6.88;2.45;;;;;;;13.58;41.80;101156.97;6331198;22;20431;-76
2022/04/09 10:48:30;;;;;;;4.43;2.35;;;;;;;13.23;41.68;101139.84;6337559;22;20010;-76
2022/04/09 10:51:07;;;;;;;3.22;1.75;;;;;;;12.71;39.08;101147.38;6329684;22;20010;-77
2022/04/09 10:53:38;;;;;;;4.03;1.60;;;;;;;12.33;39.32;101139.44;6337822;22;20011;-76
2022/04/09 10:56:25;;;;;;;3.28;2.00;;;;;;;12.09;40.61;101146.41;6331029;22;20038;-75
2022/04/09 10:59:06;;;;;;;4.18;1.85;;;;;;;11.93;41.25;101149.63;6310174;22;20007;-76
2022/04/09 11:01:43;;;;;;;7.82;2.00;;;;;;;11.79;40.93;101148.84;6331550;22;20081;-76
2022/04/09 11:07:31;;;;;;;11.85;6.55;;;;;;;12.02;40.01;101146.47;6337816;22;20067;-76
2022/04/09 11:10:03;;;;;;;12.30;7.28;;;;;;;12.87;39.55;101149.50;6337526;22;20444;-76
2022/04/09 11:12:43;;;;;;;6.45;3.75;;;;;;;13.46;39.47;101155.28;6337590;22;20401;-75
2022/04/09 11:15:10;;;;;;;3.28;2.03;;;;;;;13.55;37.81;101146.69;6325907;22;20015;-76
2022/04/09 11:17:39;;;;;;;5.97;1.95;;;;;;;12.94;37.74;101146.75;6309718;22;20078;-74
2022/04/09 11:20:11;;;;;;;2.78;1.63;;;;;;;12.34;39.53;101141.09;6330563;22;20021;-75
2022/04/09 11:22:41;;;;;;;3.47;1.60;;;;;;;12.08;36.86;101148.28;6309803;22;20038;-75
2022/04/09 11:25:09;;;;;;;2.72;1.70;;;;;;;12.22;39.37;101149.03;6330256;22;20037;-76
2022/04/09 11:27:35;;;;;;;2.70;1.40;;;;;;;12.14;38.65;101157.31;6309821;22;19999;-76
2022/04/09 11:30:01;;;;;;;5.35;2.38;;;;;;;11.97;41.46;101140.94;6335942;22;20010;-75
2022/04/09 11:32:27;;;;;;;3.42;1.50;;;;;;;12.04;39.42;101157.78;6332243;22;20037;-76
2022/04/09 11:35:00;;;;;;;2.80;1.20;;;;;;;12.01;37.73;101168.13;6335834;22;20010;-75
2022/04/09 11:37:31;;;;;;;2.75;1.50;;;;;;;12.16;39.23;101162.47;6330522;22;20018;-75
2022/04/09 11:39:58;;;;;;;4.03;1.50;;;;;;;12.45;37.81;101144.94;6337487;22;20008;-75
2022/04/09 11:42:24;;;;;;;2.70;1.20;;;;;;;12.73;39.31;101168.63;6330300;22;20349;-75
2022/04/09 11:44:50;;;;;;;5.57;1.60;;;;;;;12.49;36.78;101149.63;6337201;22;20011;-76
2022/04/09 11:47:17;;;;;;;2.25;1.10;;;;;;;12.60;37.90;101174.91;6337148;22;20034;-75
2022/04/09 11:49:45;;;;;;;2.67;1.27;;;;;;;12.81;39.43;101171.03;6324981;22;20015;-75
2022/04/09 11:52:11;;;;;;;2.95;1.40;;;;;;;13.24;40.08;101162.97;6336966;22;20010;-76
2022/04/09 11:54:38;;;;;;;5.38;1.90;;;;;;;13.68;39.63;101161.84;6330385;22;20042;-76
2022/04/09 11:57:14;;;;;;;4.03;1.48;;;;;;;13.69;37.67;101178.78;6337300;22;20434;-75
2022/04/09 11:59:40;;;;;;;4.38;1.83;;;;;;;13.72;37.56;101167.56;6302837;22;20013;-75
2022/04/09 12:02:18;;;;;;;5.35;1.65;;;;;;;13.68;39.50;101188.72;6337265;22;20025;-75
2022/04/09 12:08:12;;;;;;;4.25;1.58;;;;;;;14.09;38.87;101168.31;6337282;22;20017;-76
2022/04/09 12:10:50;;;;;;;4.05;1.83;;;;;;;14.40;40.21;101189.56;6336990;22;20510;-77
2022/04/09 12:13:15;;;;;;;7.93;2.00;;;;;;;14.43;35.53;101177.53;6323420;22;20427;-75
2022/04/09 12:15:40;;;;;;;3.20;1.60;;;;;;;14.77;37.96;101181.34;6309571;22;20006;-75
2022/04/09 12:18:25;;;;;;;4.00;1.97;;;;;;;14.63;36.39;101185.31;6330431;22;20316;-75
2022/04/09 12:20:51;;;;;;;3.92;1.58;;;;;;;13.62;36.68;101190.44;6309272;22;20249;-76
2022/04/09 12:23:27;;;;;;;2.88;1.40;;;;;;;13.20;39.12;101189.47;6302774;22;20011;-75
2022/04/09 12:25:53;;;;;;;3.88;1.70;;;;;;;13.93;37.02;101197.47;6337163;22;20033;-75
2022/04/09 12:28:22;;;;;;;3.30;1.40;;;;;;;14.12;36.11;101195.56;6330896;22;20015;-75
2022/04/09 12:30:47;;;;;;;3.78;1.40;;;;;;;14.46;34.51;101196.75;6335626;22;20256;-75
2022/04/09 12:33:13;;;;;;;6.22;1.67;;;;;;;14.62;35.46;101194.44;6309121;22;20038;-76
2022/04/09 12:35:40;;;;;;;5.18;1.77;;;;;;;14.95;34.87;101194.69;6329815;22;20014;-75
2022/04/09 12:38:06;;;;;;;3.17;1.27;;;;;;;15.36;33.56;101195.59;6309245;22;20002;-75
2022/04/09 12:40:32;;;;;;;22.10;12.18;;;;;;;15.54;32.25;101203.53;6330043;22;20394;-75
2022/04/09 12:42:58;;;;;;;6.75;2.90;;;;;;;16.02;31.96;101208.56;6309245;22;20039;-75
2022/04/09 12:45:24;;;;;;;2.67;1.50;;;;;;;16.29;31.06;101199.88;6308009;22;20005;-75
2022/04/09 12:51:18;;;;;;;4.70;2.05;;;;;;;17.22;39.11;101220.03;6337044;22;20096;-74
2022/04/09 12:53:45;;;;;;;6.43;2.10;;;;;;;17.89;38.33;101220.66;6337007;22;20007;-75
2022/04/09 12:56:12;;;;;;;6.78;2.53;;;;;;;18.01;37.80;101217.81;6309132;22;20034;-75
2022/04/09 12:58:38;;;;;;;5.55;2.10;;;;;;;18.19;36.98;101219.34;6330237;22;20021;-74
2022/04/09 13:01:05;;;;;;;5.63;2.30;;;;;;;18.16;34.86;101222.56;6309200;22;20006;-73
2022/04/09 13:03:30;;;;;;;7.80;1.88;;;;;;;18.09;31.87;101225.47;6328969;22;20013;-72
2022/04/09 13:05:56;;;;;;;3.08;1.70;;;;;;;18.09;36.30;101214.66;6309284;22;20003;-72
2022/04/09 13:08:22;;;;;;;4.65;1.63;;;;;;;18.23;34.93;101232.13;6336669;22;20003;-73
2022/04/09 13:10:48;;;;;;;3.92;1.42;;;;;;;17.60;30.29;101222.69;6302501;22;20018;-74
2022/04/09 13:13:14;;;;;;;2.13;1.50;;;;;;;16.58;31.31;101227.66;6309012;22;20006;-73
2022/04/09 13:15:39;;;;;;;3.35;1.33;;;;;;;15.87;31.85;101218.22;6302405;22;20011;-74
2022/04/09 13:18:04;;;;;;;2.27;1.17;;;;;;;15.78;29.52;101209.72;6336704;22;20003;-74
2022/04/09 13:20:30;;;;;;;3.15;1.45;;;;;;;15.61;30.20;101222.28;6336057;22;20311;-73
2022/04/09 13:22:55;;;;;;;3.00;1.60;;;;;;;15.62;30.49;101226.66;6330493;22;20003;-73
2022/04/09 13:25:21;;;;;;;2.33;1.27;;;;;;;15.64;31.41;101233.44;6309164;22;20237;-73
2022/04/09 13:27:47;;;;;;;4.93;2.00;;;;;;;14.82;33.60;101246.09;6329560;22;20794;-73
2022/04/09 13:30:14;;;;;;;3.17;1.45;;;;;;;13.89;36.29;101244.69;6308646;22;20056;-73
2022/04/09 13:32:39;;;;;;;3.72;1.70;;;;;;;12.97;38.16;101238.38;6329533;22;20019;-73
2022/04/09 13:35:05;;;;;;;5.13;2.08;;;;;;;12.31;42.30;101238.06;6336460;22;20009;-73
2022/04/09 13:37:30;;;;;;;5.95;3.30;;;;;;;12.26;43.21;101243.25;6336327;22;20006;-74
2022/04/09 13:39:56;;;;;;;3.85;2.13;;;;;;;12.31;37.10;101230.84;6328106;22;20315;-73
2022/04/09 13:42:21;;;;;;;7.65;2.20;;;;;;;11.85;42.63;101232.91;6308568;22;20132;-73
2022/04/09 13:44:46;;;;;;;3.78;1.83;;;;;;;11.64;45.05;101244.72;6329373;22;20139;-73
2022/04/09 13:50:34;;;;;;;25.75;11.88;;;;;;;11.71;39.11;101253.56;6336454;22;20259;-74
2022/04/09 13:52:59;;;;;;;23.88;14.15;;;;;;;11.53;38.22;101240.81;6308462;22;20328;-71